Flight Track Log - Related Links

Times and Time Zones

All times are in EDT time to prevent confusion due to time zone crossing. See the N868PB flight status page for this flight to view local times or setup timezone preferences in your user account.

Time Position Orientation Groundspeed Altitude Reporting Facility
EDT Latitude Longitude Course Direction KTS MPH feet Rate Location/Type
Tue 06:17:21 PM 41.7997 -81.2294 60° Northeast 174 200 3,900  Level Cleveland Center
Tue 06:18:22 PM 41.8250 -81.1711 60° Northeast 175 201 3,900 -11 Level Cleveland Center
Tue 06:20:00 PM 41.8516 -81.0926 66° East  Level FlightAware Approximate
Tue 06:27:00 PM 41.9649 -80.7553 66° East  Level FlightAware Approximate
Tue 06:28:00 PM 41.9810 -80.7070 66° East  Level FlightAware Approximate
Tue 06:29:00 PM 42.0008 -80.6613 60° Northeast  Level Estimated
Tue 06:30:00 PM 42.0204 -80.6153 60° Northeast  Level FlightAware Approximate
Tue 06:31:00 PM 42.0399 -80.5694 60° Northeast  Level FlightAware Approximate
Tue 06:32:00 PM 42.0595 -80.5234 60° Northeast  Level FlightAware Approximate
Tue 06:33:00 PM 42.0790 -80.4774 60° Northeast  Level FlightAware Approximate
Tue 06:34:00 PM 42.0985 -80.4313 60° Northeast  Level FlightAware Approximate
Tue 06:35:00 PM 42.1180 -80.3852 60° Northeast  Level FlightAware Approximate
Tue 06:36:00 PM 42.1374 -80.3391 60° Northeast  Level FlightAware Approximate
Tue 06:37:00 PM 42.1569 -80.2930 60° Northeast  Level FlightAware Approximate
Tue 06:38:00 PM 42.1763 -80.2468 60° Northeast  Level FlightAware Approximate
Tue 06:39:00 PM 42.1957 -80.2007 60° Northeast  Level FlightAware Approximate
Tue 06:40:00 PM 42.2151 -80.1544 60° Northeast  Level FlightAware Approximate
Tue 06:41:00 PM 42.2345 -80.1082 60° Northeast  Level FlightAware Approximate
Tue 06:42:00 PM 42.2538 -80.0619 61° Northeast  Level FlightAware Approximate
Tue 06:43:00 PM 42.2731 -80.0156 61° Northeast  Level FlightAware Approximate
Tue 06:43:55 PM 42.3667 -79.6500 57° Northeast 179 206 3,600  Level Buffalo TRACON
Tue 06:44:00 PM 42.2924 -79.9693 61° Northeast  Level FlightAware Approximate
Tue 06:45:00 PM 42.3117 -79.9229 61° Northeast  Level FlightAware Approximate
Tue 06:45:13 PM 42.4000 -79.5667 62° Northeast 177 204 3,600  Level Buffalo TRACON
Tue 06:46:00 PM 42.3310 -79.8765 61° Northeast  Level FlightAware Approximate
Tue 06:46:13 PM 42.4333 -79.5167 48° Northeast 179 206 3,600  Level Buffalo TRACON
Tue 06:47:00 PM 42.3503 -79.8301 61° Northeast  Level FlightAware Approximate
Tue 06:47:13 PM 42.4500 -79.4500 71° East 179 206 3,600  Level Buffalo TRACON
Tue 06:48:00 PM 42.3276 -79.7865 125° Southeast  Level FlightAware Approximate
Tue 06:48:13 PM 42.4833 -79.4000 48° Northeast 181 208 3,700  Level Buffalo TRACON
Tue 06:49:00 PM 42.3480 -79.7408 57° Northeast  Level Estimated
Tue 06:49:13 PM 42.5000 -79.3333 71° East 183 211 3,700  Level Buffalo TRACON
Tue 06:50:13 PM 42.5333 -79.2833 48° Northeast 185 213 3,700  Level Buffalo TRACON
Tue 06:51:13 PM 42.5667 -79.2167 56° Northeast 185 213 3,700  Level Buffalo TRACON
Tue 06:52:13 PM 42.5833 -79.1667 66° East 184 212 3,700  Level Buffalo TRACON
Tue 06:53:14 PM 42.6167 -79.1000 56° Northeast 188 216 3,700  Level Buffalo TRACON
Tue 06:54:14 PM 42.6500 -79.0333 56° Northeast 189 217 3,700  Level Buffalo TRACON
Tue 06:55:14 PM 42.6667 -78.9833 66° East 189 217 3,700  Level Buffalo TRACON
Tue 06:56:08 PM 42.7000 -78.9167 56° Northeast 187 215 3,700  Level Buffalo TRACON
Tue 06:57:08 PM 42.7167 -78.8667 66° East 185 213 3,700 50 Level Buffalo TRACON
Tue 06:58:08 PM 42.7500 -78.8167 48° Northeast 178 205 3,800 -50 Climbing Buffalo TRACON
Tue 06:59:08 PM 42.7833 -78.7667 48° Northeast 196 226 3,600 -200 Descending Buffalo TRACON
Tue 07:00:08 PM 42.8167 -78.7000 56° Northeast 191 220 3,400 -150 Descending Buffalo TRACON
Tue 07:01:08 PM 42.8333 -78.6333 71° East 186 214 3,300 -100 Descending Buffalo TRACON
Tue 07:02:08 PM 42.8667 -78.5833 48° Northeast 185 213 3,200 -100 Descending Buffalo TRACON
Tue 07:03:08 PM 42.8833 -78.5167 71° East 190 219 3,100 -100 Descending Buffalo TRACON
Tue 07:04:08 PM 42.9167 -78.4500 56° Northeast 188 216 3,000 -100 Descending Buffalo TRACON
Tue 07:05:08 PM 42.9333 -78.3833 71° East 191 220 2,900 -100 Descending Buffalo TRACON

Login

Don't have an account? Register now (free) for customized features, flight alerts, and more!